KTVK

Details ICAO KTVK
Name CENTERVILLE MUNI
Region United States
Timezone America/Chicago (UTC-6.0)
Plans Departing 1
Arriving 1
Stats Elevation 1,028 ft / 313 m (AMSL)
Location 40.685470° -92.901444°
Runways 1
Magnetic Variation 0.322° E
Sunrise 2017-12-12 13:27:51 UTC / 2017-12-12 07:27:51 Local
Sunset 2017-12-12 22:45:55 UTC / 2017-12-12 16:45:55 Local
Advertisement - Login to hide

Runways

ID Width Length Bearing (true) Bearing (mag) Surface Threshold Offset Overrun Length
16 75 ft / 23 m 4,105 ft / 1,251 m 158.51° 158.19° Concrete 0 ft / 0 m 0 ft / 0 m
34 75 ft / 23 m 4,105 ft / 1,251 m 338.52° 338.20° Concrete 0 ft / 0 m 0 ft / 0 m

Map

Weather


0- 5 10 15 20 25 30 35+ Temperature / ° C

Clouds and Precipitation
Forecast for 2017-12-13 06:00 UTC. Updated 39 minutes ago

Ground ~20,000 ft ~40,000 ft Winds

METAR

KTVK 130335Z AUTO 19007KT 10SM M04/M08 A2996 RMK AO2

TAF

Not found

Frequencies

Unicom 122.80 MHz CTAF/UNICOM
Warning: Do not use this data for real-world aviation or navigation. No guarantee of current accuracy is given.